KSPW

Spencer Municipal Airport

Spencer, Iowa, USA
METAR KSPW 222253Z AUTO 30010KT 10SM CLR 16/M01 A3015 RMK AO2 SLP219 T01561006
Observed Flight Rules
Oct-22 @ 22:53 UTC (25 minutes ago) Visual Flight Rules
Wind Visibility Clouds
300° at 10 knots 10 miles
  • Clear skies
Temperatures Readings
Current 16°C / 61°F
Dewpoint -1°C / 30°F
Humidity 31%
Altimeter 30.15" Hg
Pressure 1021.9 hPa
Elevation 403
METAR KSPW 222253Z AUTO 30010KT 10SM CLR 16/M01 A3015 RMK AO2 SLP219 T01561006
Observed Flight Rules
Oct-22 @ 22:53 UTC
(25 minutes ago)
VFR
Wind Visibility
300° at 10 knots 10 miles
Clouds
  • Clear skies
Temperature Dewpoint
16°C / 61°F -1°C / 30°F
Humidity Altimeter Pressure
31% 30.15" Hg 1021.9 hPa